マラボ国際空港の過去48時間の天気

マラボ国際空港 (Malabo/Fernando Poo)

現在時刻: 5/26 02:13 WAT (5/26 01:13 UTC) 以下の時間は現地時間です。

過去48時間のMETAR気象情報
時間 風向 風速(m/s) 視程 気温(℃) 湿度(%) 気圧(hPa) 天気現象
26 01:00 不定 1 10km以上 25 89 1015
26 00:00 南西 2 10km以上 26 89 1016
25 22:00 不定 1 10km以上 26 89 1017
25 21:00 静穏 0 10km以上 25 94 1016
25 20:00 南南西 2 10km以上 26 94 1015 雷 塵旋風
25 19:00 西 2 10km以上 26 94 1014
25 18:00 西南西 2 10km以上 27 89 1014
25 17:00 南西 3 10km以上 29 79 1013 雷 塵旋風
25 16:00 南西 4 10km以上 28 89 1013
25 15:00 北北西 2 10km以上 29 84 1014
25 14:00 北北西 2 10km以上 31 70 1015
25 13:00 2 10km以上 30 79 1016
25 12:30 2 10km以上 30 79 1016
25 12:00 北北西 2 10km以上 30 79 1016
25 11:00 北西 2 10km以上 28 89 1017
25 10:00 北北西 3 10km以上 28 89 1017
25 09:00 北北西 4 10km以上 27 89 1017
25 08:00 静穏 0 10km以上 26 89 1016
25 07:00 西南西 1 10km以上 25 89 1015
25 02:00 静穏 0 10km以上 24 89 1014
25 00:00 西 1 - 24 94 1015
24 23:00 南東 2 10km以上 24 89 1015
24 22:00 不定 1 10km以上 24 89 1015
24 21:00 南西 1 10km以上 24 94 1015
24 20:00 西南西 2 10km以上 25 100 1014
24 19:00 南西 4 10km以上 26 94 1013
24 18:00 西南西 4 10km以上 27 89 1013
24 17:00 西 4 10km以上 28 84 1012
24 16:00 西 3 10km以上 29 79 1012
24 15:00 西北西 2 10km以上 29 79 1012
24 14:00 3 10km以上 29 79 1013
24 13:00 2 10km以上 30 70 1014
24 11:00 西 2 10km以上 29 79 1015
24 10:00 不定 1 10km以上 29 89 1015
24 09:00 静穏 0 10km以上 27 89 1015
24 08:00 静穏 0 10km以上 25 94 1015
24 07:00 不定 1 10km以上 24 94 1014
24 06:00 2 10km以上 24 94 1014
24 05:00 西 1 10km以上 24 94 1013
24 04:00 不定 1 10km以上 23 94 1013
24 03:00 西南西 3 10km以上 23 94 1013
FGSL 260000Z VRB01KT 9999 TS FEW010 FEW020CB 25/23 Q1015 NOSIG
FGSL 252300Z 23003KT 190V260 9999 FEW010 26/24 Q1016 NOSIG
FGSL 252100Z VRB01KT 9999 SCT010 26/24 Q1017 NOSIG
FGSL 252000Z 00000KT 9999 SCT010 25/24 Q1016 NOSIG
FGSL 251900Z 20003KT 160V230 9999 FEW010 FEW020CB 26/25 Q1015 T EMPO TS
FGSL 251800Z 27004KT 9999 FEW010 FEW020CB 26/25 Q1014 NOSIG
FGSL 251700Z 25004KT 9999 SCT010 FEW020CB 27/25 Q1014 NOSIG
FGSL 251600Z 22006KT 190V260 9999 SCT010 FEW020CB 29/25 Q1013 T EMPO TS
FGSL 251500Z 23008KT 9999 SCT010 28/26 Q1013 NOSIG
FGSL 251400Z 33003KT 270V010 9999 SCT010 FEW020CB 29/26 Q1014 N OSIG
FGSL 251300Z 34004KT 290V030 9999 SCT010 31/25 Q1015 NOSIG
FGSL 251200Z 36004KT 320V040 9999 SCT010 30/26 Q1016 NOSIG
FGSL 251130Z 36004KT 320V050 9999 SCT010 SCT046 30/26 Q1016 NOSIG
FGSL 251100Z 34003KT 280V040 9999 SCT010 SCT046 30/26 Q1016 NOS IG
FGSL 251000Z 31004KT 270V340 9999 SCT010 SCT046 28/26 Q1017 NOS IG
FGSL 250900Z 33006KT 300V030 9999 SCT010 SCT046 28/26 Q1017 NOS IG
FGSL 250800Z 34007KT 320V020 9999 SCT010 FEW020CB 27/25 Q1017 N OSIG
FGSL 250700Z 00000KT 9999 SCT010 FEW020CB 26/24 Q1016 NOSIG
FGSL 250600Z 25002KT 9999 SCT010 FEW020CB 25/23 Q1015 NOSIG
FGSL 250100Z 00000KT 9999 FEW010 24/22 Q1014 NOSIG
FGSL 242300Z AUTO 27001KT NCD 24/23 Q1015
FGSL 242200Z 14003KT 9999 FEW010 24/22 Q1015 NOSIG
FGSL 242100Z VRB01KT 9999 FEW010 24/22 Q1015 NOSIG
FGSL 242000Z 23002KT 9999 FEW010 24/23 Q1015 NOSIG
FGSL 241900Z 25004KT 9999 FEW010 25/25 Q1014 NOSIG
FGSL 241800Z 23007KT 9999 SCT010 26/25 Q1013 NOSIG
FGSL 241700Z 24008KT 9999 SCT010 27/25 Q1013 NOSIG
FGSL 241600Z 26008KT 9999 FEW010 SCT016 28/25 Q1012 NOSIG
FGSL 241500Z 27006KT 9999 FEW010 SCT016 29/25 Q1012 NOSIG
FGSL 241400Z 30003KT 210V350 9999 FEW010 SCT016 29/25 Q1012 NOS IG
FGSL 241300Z 36006KT 320V040 9999 SCT010 29/25 Q1013 NOSIG
FGSL 241200Z 36004KT 310V050 9999 SCT010 30/24 Q1014 NOSIG
FGSL 241000Z 28004KT 250V330 9999 SCT010 29/25 Q1015 NOSIG
FGSL 240900Z VRB01KT 9999 SCT010 29/27 Q1015 NOSIG
FGSL 240800Z 00000KT 9999 SCT010 BKN050 27/25 Q1015 NOSIG
FGSL 240700Z 00000KT 9999 SCT010 BKN050 25/24 Q1015 NOSIG
FGSL 240600Z VRB02KT 9999 SCT010 24/23 Q1014 NOSIG
FGSL 240500Z 18004KT 9999 SCT010 BKN046 24/23 Q1014 NOSIG
FGSL 240400Z 28002KT 9999 SCT010 24/23 Q1013 NOSIG
FGSL 240300Z VRB02KT 9999 SCT010 23/22 Q1013 NOSIG
FGSL 240200Z 24005KT 9999 SCT010 23/22 Q1013 NOSIG